Terminal Aerodrome Forecast
Issued by NWS

Home | Current Version | Previous Version | Text Only | Print | Product List | Glossary On
Versions: 1 2 3 4 5 6 7 8 9 10 11 12 13 14 15 16 17 18 19 20 21 22 23 24 25 26 27 28 29 30 31 32 33 34
000
FTUS45 KGJT 250525
TAFTEX
TAF
KTEX 250525Z 2506/2606 07004KT P6SM VCTS SCT070CB BKN100
      TEMPO 2506/2508 -SHRA SCT050 BKN070
     FM250800 14003KT P6SM VCSH BKN120
     FM252000 20006KT P6SM VCTS BKN080CB BKN100
     FM260200 10005KT P6SM VCTS BKN100CB=

USA.gov is the U.S. government's official web portal to all federal, state and local government web resources and services.